createdAt,value
2022-09-23T00:02:49.111Z,59.64
2022-09-23T00:07:43.743Z,60.25
2022-09-23T00:12:36.961Z,60.49
2022-09-23T00:17:30.155Z,60.46
2022-09-23T00:22:23.661Z,61.54
2022-09-23T00:27:21.112Z,62.26
2022-09-23T00:32:14.374Z,62.77
2022-09-23T00:37:07.636Z,64.13
2022-09-23T00:42:00.921Z,64.82
2022-09-23T00:46:55.573Z,66.17
2022-09-23T00:51:54.744Z,67.46
2022-09-23T00:56:47.981Z,68.43
2022-09-23T01:01:41.397Z,69.36
2022-09-23T01:06:35.941Z,70.06
2022-09-23T01:11:40.201Z,70.60
2022-09-23T01:16:42.057Z,71.58
2022-09-23T01:21:51.305Z,72.72
2022-09-23T01:26:56.728Z,73.10
2022-09-23T01:31:56.006Z,74.47
2022-09-23T01:36:53.402Z,75.32
2022-09-23T01:41:58.303Z,75.93
2022-09-23T01:46:56.246Z,76.47
2022-09-23T01:51:53.515Z,77.14
2022-09-23T01:56:52.220Z,77.11
2022-09-23T02:01:50.933Z,77.83
2022-09-23T02:06:51.238Z,78.35
2022-09-23T02:11:48.264Z,78.59
2022-09-23T02:16:47.609Z,78.37
2022-09-23T02:21:45.373Z,77.98
2022-09-23T02:26:48.186Z,78.10
2022-09-23T02:31:46.609Z,78.54
2022-09-23T02:36:52.994Z,78.36
2022-09-23T02:41:53.762Z,78.47
2022-09-23T02:46:47.632Z,78.82
2022-09-23T02:51:41.836Z,78.33
2022-09-23T02:56:35.821Z,78.06
2022-09-23T03:01:41.892Z,78.01
2022-09-23T03:06:45.101Z,77.99
2022-09-23T03:11:41.584Z,77.09
2022-09-23T03:16:43.752Z,77.95
2022-09-23T03:21:43.217Z,79.11
2022-09-23T03:26:39.801Z,79.87
2022-09-23T03:31:33.914Z,80.80
2022-09-23T03:36:52.196Z,80.65
2022-09-23T03:41:50.984Z,80.63
2022-09-23T03:46:49.834Z,79.92
2022-09-23T03:51:44.934Z,79.24
2022-09-23T03:56:38.489Z,79.80
2022-09-23T04:01:31.604Z,79.76
2022-09-23T04:06:24.938Z,79.03
2022-09-23T04:11:19.483Z,79.07
2022-09-23T04:16:12.989Z,79.11
2022-09-23T04:21:06.518Z,77.83
2022-09-23T04:26:00.799Z,76.29
2022-09-23T04:30:57.954Z,75.80
2022-09-23T04:35:53.671Z,75.71
2022-09-23T04:40:47.100Z,75.69
2022-09-23T04:45:40.457Z,74.04
2022-09-23T04:50:38.864Z,73.63
2022-09-23T04:55:32.130Z,73.05
2022-09-23T05:00:27.263Z,73.43
2022-09-23T05:05:21.268Z,73.39
2022-09-23T05:10:15.905Z,72.85
2022-09-23T05:15:09.856Z,72.75
2022-09-23T05:20:03.425Z,72.94
2022-09-23T05:24:56.665Z,73.15
2022-09-23T05:29:53.213Z,73.68
2022-09-23T05:34:46.441Z,73.61
2022-09-23T05:39:39.709Z,73.92
2022-09-23T05:44:40.132Z,73.92
2022-09-23T05:49:58.102Z,72.78
2022-09-23T05:54:50.046Z,72.39
2022-09-23T05:59:47.427Z,72.34
2022-09-23T06:04:43.175Z,73.15
2022-09-23T06:09:56.000Z,72.71
2022-09-23T06:14:50.760Z,72.67
2022-09-23T06:19:45.435Z,73.04
2022-09-23T06:24:38.577Z,71.30
2022-09-23T06:29:33.826Z,71.11
2022-09-23T06:34:27.016Z,70.19
2022-09-23T06:39:21.617Z,69.81
2022-09-23T06:44:14.933Z,69.59
2022-09-23T06:49:09.097Z,67.61
2022-09-23T06:54:02.710Z,66.58
2022-09-23T06:58:57.346Z,65.90
2022-09-23T07:03:54.315Z,65.94
2022-09-23T07:08:48.655Z,70.63
2022-09-23T07:13:42.759Z,76.18
2022-09-23T07:18:41.072Z,78.90
2022-09-23T07:23:35.118Z,80.81
2022-09-23T07:28:29.288Z,82.18
2022-09-23T07:33:31.637Z,83.16
2022-09-23T07:38:34.207Z,84.56
2022-09-23T07:43:32.044Z,86.59
2022-09-23T07:48:25.184Z,87.05
2022-09-23T07:53:18.303Z,86.83
2022-09-23T07:58:19.244Z,87.18
2022-09-23T08:03:12.374Z,87.15
2022-09-23T08:08:07.308Z,87.26
2022-09-23T08:13:06.585Z,89.20
2022-09-23T08:18:04.325Z,91.21
2022-09-23T08:22:57.453Z,90.60
2022-09-23T08:27:50.755Z,89.21
2022-09-23T08:32:43.923Z,89.63
2022-09-23T08:37:38.403Z,91.64
2022-09-23T08:42:34.985Z,91.74
2022-09-23T08:47:44.489Z,92.28
2022-09-23T08:52:50.208Z,92.12
2022-09-23T08:58:23.334Z,91.54
2022-09-23T09:03:21.925Z,91.02
2022-09-23T09:08:24.615Z,89.65
2022-09-23T09:13:31.030Z,87.74
2022-09-23T09:18:26.529Z,88.85
2022-09-23T09:23:25.076Z,85.92
2022-09-23T09:28:24.757Z,87.31
2022-09-23T09:33:24.503Z,87.28
2022-09-23T09:38:17.877Z,84.21
2022-09-23T09:43:22.790Z,82.09
2022-09-23T09:48:22.761Z,83.42
2022-09-23T09:53:26.453Z,82.69
2022-09-23T09:58:21.097Z,82.77
2022-09-23T10:03:35.507Z,83.46
2022-09-23T10:08:32.471Z,82.32
2022-09-23T10:13:29.508Z,78.91
2022-09-23T10:18:27.721Z,79.64
2022-09-23T10:23:28.713Z,79.09
2022-09-23T10:28:43.078Z,73.58
2022-09-23T10:33:44.085Z,72.19
2022-09-23T10:38:39.545Z,71.83
2022-09-23T10:44:11.870Z,72.02
2022-09-23T10:49:35.731Z,69.59
2022-09-23T10:54:42.521Z,68.87
2022-09-23T11:00:02.802Z,65.00
2022-09-23T11:05:16.815Z,60.36
2022-09-23T11:10:45.009Z,58.82
2022-09-23T11:15:55.421Z,58.41
2022-09-23T11:20:59.595Z,53.37
2022-09-23T11:26:01.850Z,50.20
2022-09-23T11:31:06.574Z,45.28
2022-09-23T11:36:08.537Z,42.33
2022-09-23T11:41:05.281Z,42.64
2022-09-23T11:46:05.022Z,41.96
2022-09-23T11:51:03.332Z,39.25
2022-09-23T11:56:04.045Z,38.86
2022-09-23T12:01:05.549Z,37.82
2022-09-23T12:06:02.752Z,34.93
2022-09-23T12:11:06.192Z,33.31
2022-09-23T12:16:20.001Z,32.45
2022-09-23T12:21:50.323Z,34.80
2022-09-23T12:26:47.079Z,34.72
2022-09-23T12:31:46.777Z,34.08
2022-09-23T12:36:41.330Z,33.76
2022-09-23T12:41:38.518Z,33.93
2022-09-23T12:46:31.757Z,35.62
2022-09-23T12:51:27.011Z,36.08
2022-09-23T12:56:21.770Z,35.98
2022-09-23T13:01:20.559Z,31.21
2022-09-23T13:06:33.397Z,30.68
2022-09-23T13:11:31.891Z,30.67
2022-09-23T13:16:30.783Z,30.91
2022-09-23T13:22:06.972Z,30.14
2022-09-23T13:27:11.578Z,29.84
2022-09-23T13:32:06.407Z,31.89
2022-09-23T13:37:00.823Z,34.49
2022-09-23T13:41:56.892Z,33.45
2022-09-23T13:46:54.605Z,32.67
2022-09-23T13:51:48.537Z,30.69
2022-09-23T13:56:50.318Z,28.20
2022-09-23T14:01:47.265Z,26.96
2022-09-23T14:06:42.765Z,26.50
2022-09-23T14:11:37.333Z,27.39
2022-09-23T14:16:32.495Z,27.49
2022-09-23T14:21:34.031Z,28.63
2022-09-23T14:26:29.283Z,30.41
2022-09-23T14:31:22.715Z,34.59
2022-09-23T14:36:36.662Z,37.27
2022-09-23T14:41:36.547Z,39.07
2022-09-23T14:46:33.163Z,40.73
2022-09-23T14:51:45.985Z,41.37
2022-09-23T14:56:45.363Z,42.47
2022-09-23T15:01:40.105Z,43.64
2022-09-23T15:06:33.506Z,44.17
2022-09-23T15:11:26.824Z,46.45
2022-09-23T15:16:27.820Z,47.43
2022-09-23T15:21:23.318Z,48.65
2022-09-23T15:26:18.169Z,47.91
2022-09-23T15:31:12.945Z,47.60
2022-09-23T15:36:09.285Z,47.26
2022-09-23T15:41:03.192Z,47.09
2022-09-23T15:46:00.194Z,47.95
2022-09-23T15:50:57.006Z,48.94
2022-09-23T15:55:52.398Z,48.00
2022-09-23T16:00:46.062Z,50.39
2022-09-23T16:05:41.274Z,50.11
2022-09-23T16:10:34.967Z,50.72
2022-09-23T16:15:31.893Z,50.53
2022-09-23T16:20:28.609Z,50.76
2022-09-23T16:25:28.464Z,50.55
2022-09-23T16:30:21.786Z,51.55
2022-09-23T16:35:16.969Z,52.75
2022-09-23T16:40:11.199Z,54.03
2022-09-23T16:45:05.729Z,55.11
2022-09-23T16:50:01.449Z,56.05
2022-09-23T16:54:56.151Z,56.20
2022-09-23T17:00:08.976Z,56.60
2022-09-23T17:05:01.961Z,59.82
2022-09-23T17:09:58.216Z,60.47
2022-09-23T17:14:52.640Z,61.90
2022-09-23T17:19:46.142Z,63.25
2022-09-23T17:24:39.309Z,64.06
2022-09-23T17:29:34.005Z,64.03
2022-09-23T17:34:28.973Z,61.28
2022-09-23T17:39:22.130Z,61.12
2022-09-23T17:44:16.208Z,61.48
2022-09-23T17:49:12.127Z,61.67
2022-09-23T17:54:07.851Z,63.71
2022-09-23T17:59:02.480Z,64.14
2022-09-23T18:03:56.258Z,65.00
2022-09-23T18:08:52.907Z,65.94
2022-09-23T18:13:50.847Z,67.58
2022-09-23T18:18:44.738Z,65.57
2022-09-23T18:23:38.272Z,65.59
2022-09-23T18:28:34.943Z,65.29
2022-09-23T18:33:28.456Z,65.27
2022-09-23T18:38:22.667Z,66.10
2022-09-23T18:43:19.627Z,64.25
2022-09-23T18:48:32.005Z,65.02
2022-09-23T18:53:25.320Z,63.76
2022-09-23T18:58:18.547Z,65.40
2022-09-23T19:03:11.762Z,67.29
2022-09-23T19:08:07.536Z,68.10
2022-09-23T19:13:00.758Z,68.87
2022-09-23T19:17:54.811Z,69.07
2022-09-23T19:22:48.536Z,69.48
2022-09-23T19:27:42.977Z,69.25
2022-09-23T19:32:36.132Z,70.80
2022-09-23T19:37:29.543Z,70.51
2022-09-23T19:42:25.087Z,71.29
2022-09-23T19:47:19.873Z,70.08
2022-09-23T19:52:16.845Z,70.50
2022-09-23T19:57:10.235Z,70.64
2022-09-23T20:02:03.546Z,71.02
2022-09-23T20:06:59.966Z,71.61
2022-09-23T20:11:53.499Z,68.79
2022-09-23T20:16:46.791Z,67.86
2022-09-23T20:22:07.036Z,66.71
2022-09-23T20:27:10.701Z,67.02
2022-09-23T20:32:04.200Z,66.33
2022-09-23T20:36:57.699Z,66.30
2022-09-23T20:41:52.456Z,66.77
2022-09-23T20:46:49.019Z,67.73
2022-09-23T20:51:42.762Z,68.00
2022-09-23T20:56:36.005Z,67.90
2022-09-23T21:01:29.641Z,68.49
2022-09-23T21:06:26.304Z,69.74
2022-09-23T21:11:20.293Z,70.38
2022-09-23T21:16:15.400Z,70.53
2022-09-23T21:21:09.185Z,70.16
2022-09-23T21:26:04.705Z,69.47
2022-09-23T21:30:59.753Z,69.33
2022-09-23T21:35:55.762Z,68.91
2022-09-23T21:40:57.758Z,68.55
2022-09-23T21:45:57.066Z,68.19
2022-09-23T21:50:55.784Z,67.65
2022-09-23T21:55:48.974Z,68.02
2022-09-23T22:00:42.193Z,68.83
2022-09-23T22:05:37.446Z,70.01
2022-09-23T22:10:30.618Z,71.81
2022-09-23T22:15:23.763Z,70.82
2022-09-23T22:20:17.103Z,69.94
2022-09-23T22:25:12.695Z,69.37
2022-09-23T22:30:24.263Z,68.92
2022-09-23T22:35:18.802Z,68.48
2022-09-23T22:40:18.456Z,69.07
2022-09-23T22:45:12.997Z,69.41
2022-09-23T22:50:07.187Z,68.76
2022-09-23T22:55:00.369Z,68.77
2022-09-23T22:59:54.991Z,69.59
2022-09-23T23:04:49.060Z,69.85
2022-09-23T23:09:43.130Z,68.85
2022-09-23T23:14:37.815Z,69.59
2022-09-23T23:19:32.356Z,68.55
2022-09-23T23:24:25.877Z,69.40
2022-09-23T23:29:20.818Z,70.42
2022-09-23T23:34:16.317Z,71.27
2022-09-23T23:39:11.602Z,71.75
2022-09-23T23:44:05.627Z,70.32
2022-09-23T23:48:59.999Z,70.68
2022-09-23T23:53:54.392Z,71.03
2022-09-23T23:58:49.102Z,71.55
